createdAt,value
2022-08-29T00:00:08.961Z,27.73
2022-08-29T00:02:53.597Z,27.27
2022-08-29T00:05:25.090Z,26.85
2022-08-29T00:07:53.648Z,25.42
2022-08-29T00:10:22.882Z,24.30
2022-08-29T00:12:52.307Z,24.48
2022-08-29T00:15:26.173Z,26.05
2022-08-29T00:17:54.708Z,28.08
2022-08-29T00:20:33.928Z,27.98
2022-08-29T00:23:04.299Z,25.98
2022-08-29T00:25:32.421Z,26.80
2022-08-29T00:28:00.176Z,26.02
2022-08-29T00:30:28.363Z,24.75
2022-08-29T00:32:56.345Z,26.48
2022-08-29T00:35:32.766Z,25.52
2022-08-29T00:38:01.182Z,26.13
2022-08-29T00:40:40.545Z,25.88
2022-08-29T00:43:08.524Z,24.65
2022-08-29T00:45:37.561Z,25.95
2022-08-29T00:48:12.982Z,25.55
2022-08-29T00:50:48.983Z,26.33
2022-08-29T00:53:17.773Z,27.52
2022-08-29T00:55:48.276Z,24.52
2022-08-29T00:58:23.548Z,24.10
2022-08-29T01:00:52.002Z,25.08
2022-08-29T01:03:20.176Z,23.10
2022-08-29T01:05:48.835Z,23.85
2022-08-29T01:08:17.610Z,24.02
2022-08-29T01:11:04.548Z,24.98
2022-08-29T01:13:35.223Z,23.75
2022-08-29T01:16:03.767Z,25.88
2022-08-29T01:18:32.533Z,24.50
2022-08-29T01:21:13.450Z,24.85
2022-08-29T01:24:01.718Z,28.58
2022-08-29T01:26:29.770Z,28.23
2022-08-29T01:28:57.718Z,28.60
2022-08-29T01:31:55.591Z,28.48
2022-08-29T01:34:22.859Z,28.63
2022-08-29T01:36:52.201Z,27.65
2022-08-29T01:39:22.272Z,27.13
2022-08-29T01:41:50.418Z,28.50
2022-08-29T01:44:19.643Z,28.80
2022-08-29T01:46:49.215Z,25.70
2022-08-29T01:49:18.686Z,25.98
2022-08-29T01:51:46.721Z,27.30
2022-08-29T01:54:14.931Z,27.98
2022-08-29T01:56:47.270Z,27.10
2022-08-29T01:59:16.789Z,24.00
2022-08-29T02:01:52.642Z,24.10
2022-08-29T02:04:20.741Z,15.27
2022-08-29T02:06:48.676Z,12.32
2022-08-29T02:09:17.342Z,11.18
2022-08-29T02:11:46.628Z,9.18
2022-08-29T02:14:19.221Z,8.18
2022-08-29T02:16:48.436Z,8.77
2022-08-29T02:19:16.515Z,10.95
2022-08-29T02:21:44.621Z,11.07
2022-08-29T02:24:24.926Z,11.02
2022-08-29T02:26:54.250Z,11.52
2022-08-29T02:29:24.273Z,12.02
2022-08-29T02:31:52.315Z,10.35
2022-08-29T02:34:20.405Z,10.02
2022-08-29T02:36:49.259Z,10.25
2022-08-29T02:39:18.344Z,10.32
2022-08-29T02:41:46.717Z,9.48
2022-08-29T02:44:15.078Z,10.63
2022-08-29T02:46:43.079Z,9.65
2022-08-29T02:49:11.036Z,12.98
2022-08-29T02:51:39.008Z,10.23
2022-08-29T02:54:07.841Z,10.52
2022-08-29T02:56:36.851Z,11.60
2022-08-29T02:59:04.886Z,9.45
2022-08-29T03:01:34.147Z,9.18
2022-08-29T03:04:02.371Z,9.32
2022-08-29T03:06:30.387Z,10.80
2022-08-29T03:08:58.519Z,10.50
2022-08-29T03:11:27.514Z,9.75
2022-08-29T03:13:57.783Z,10.35
2022-08-29T03:16:26.735Z,9.93
2022-08-29T03:18:55.016Z,10.18
2022-08-29T03:21:25.104Z,9.73
2022-08-29T03:23:53.537Z,8.88
2022-08-29T03:26:21.376Z,9.30
2022-08-29T03:28:49.237Z,9.38
2022-08-29T03:31:17.225Z,9.07
2022-08-29T03:33:46.356Z,9.10
2022-08-29T03:36:14.933Z,9.85
2022-08-29T03:38:43.883Z,9.20
2022-08-29T03:41:11.855Z,8.80
2022-08-29T03:43:40.078Z,10.98
2022-08-29T03:46:08.015Z,9.38
2022-08-29T03:48:35.909Z,10.43
2022-08-29T03:51:04.360Z,9.30
2022-08-29T03:53:33.255Z,9.70
2022-08-29T03:56:01.218Z,9.98
2022-08-29T03:58:29.271Z,10.82
2022-08-29T04:00:59.165Z,10.23
2022-08-29T04:03:31.331Z,9.43
2022-08-29T04:05:59.785Z,9.93
2022-08-29T04:08:28.839Z,10.15
2022-08-29T04:10:56.978Z,10.52
2022-08-29T04:13:25.111Z,9.45
2022-08-29T04:15:53.843Z,9.15
2022-08-29T04:18:22.526Z,8.88
2022-08-29T04:20:50.975Z,9.43
2022-08-29T04:23:20.228Z,10.07
2022-08-29T04:25:48.150Z,9.40
2022-08-29T04:28:17.839Z,8.85
2022-08-29T04:30:51.412Z,8.50
2022-08-29T04:33:22.682Z,8.23
2022-08-29T04:35:52.107Z,8.13
2022-08-29T04:38:21.838Z,7.97
2022-08-29T04:40:50.165Z,7.78
2022-08-29T04:43:21.498Z,7.72
2022-08-29T04:45:55.684Z,8.93
2022-08-29T04:48:24.200Z,7.50
2022-08-29T04:50:59.108Z,8.73
2022-08-29T04:53:34.532Z,7.68
2022-08-29T04:56:03.624Z,7.63
2022-08-29T04:58:35.490Z,7.95
2022-08-29T05:01:06.805Z,8.93
2022-08-29T05:03:36.026Z,9.45
2022-08-29T05:06:09.441Z,7.82
2022-08-29T05:08:37.873Z,8.63
2022-08-29T05:11:09.408Z,8.80
2022-08-29T05:13:37.500Z,7.72
2022-08-29T05:16:09.781Z,7.55
2022-08-29T05:18:38.665Z,8.40
2022-08-29T05:21:07.539Z,8.43
2022-08-29T05:23:36.038Z,7.88
2022-08-29T05:26:05.056Z,8.13
2022-08-29T05:28:33.945Z,8.60
2022-08-29T05:31:02.716Z,7.75
2022-08-29T05:33:31.266Z,7.90
2022-08-29T05:36:02.530Z,7.22
2022-08-29T05:38:30.485Z,7.32
2022-08-29T05:40:59.461Z,6.82
2022-08-29T05:43:27.294Z,6.85
2022-08-29T05:46:03.136Z,6.55
2022-08-29T05:50:59.751Z,7.70
2022-08-29T05:53:28.085Z,7.25
2022-08-29T05:55:56.167Z,7.05
2022-08-29T05:58:25.142Z,7.07
2022-08-29T06:00:53.040Z,6.78
2022-08-29T06:03:21.000Z,7.72
2022-08-29T06:05:52.173Z,6.88
2022-08-29T06:08:20.983Z,6.43
2022-08-29T06:10:49.088Z,9.13
2022-08-29T06:13:17.854Z,6.55
2022-08-29T06:15:48.895Z,6.40
2022-08-29T06:18:17.176Z,6.20
2022-08-29T06:20:45.260Z,6.05
2022-08-29T06:23:14.709Z,7.80
2022-08-29T06:25:42.585Z,7.60
2022-08-29T06:28:10.693Z,6.07
2022-08-29T06:30:41.082Z,6.32
2022-08-29T06:33:10.232Z,6.10
2022-08-29T06:35:38.201Z,6.05
2022-08-29T06:38:09.730Z,5.90
2022-08-29T06:40:41.551Z,5.35
2022-08-29T06:43:09.986Z,5.30
2022-08-29T06:45:42.910Z,4.85
2022-08-29T06:48:11.407Z,4.70
2022-08-29T06:50:45.430Z,4.90
2022-08-29T06:53:27.304Z,5.20
2022-08-29T06:55:58.276Z,4.20
2022-08-29T06:58:27.984Z,4.13
2022-08-29T07:00:55.951Z,4.10
2022-08-29T07:03:27.044Z,2.58
2022-08-29T07:05:55.380Z,3.40
2022-08-29T07:08:28.450Z,2.63
2022-08-29T07:10:56.571Z,2.90
2022-08-29T07:13:24.705Z,2.60
2022-08-29T07:15:53.613Z,2.47
2022-08-29T07:18:22.047Z,3.00
2022-08-29T07:20:50.073Z,2.97
2022-08-29T07:23:18.286Z,2.90
2022-08-29T07:25:46.345Z,3.47
2022-08-29T07:28:14.509Z,2.72
2022-08-29T07:30:43.362Z,2.85
2022-08-29T07:33:12.269Z,3.15
2022-08-29T07:35:40.378Z,2.97
2022-08-29T07:38:08.161Z,2.83
2022-08-29T07:40:37.716Z,3.05
2022-08-29T07:43:05.985Z,2.88
2022-08-29T07:45:35.135Z,3.22
2022-08-29T07:48:03.089Z,3.85
2022-08-29T07:50:35.741Z,3.38
2022-08-29T07:53:03.577Z,2.95
2022-08-29T07:55:31.758Z,3.63
2022-08-29T07:58:00.134Z,3.92
2022-08-29T08:00:30.728Z,3.85
2022-08-29T08:02:59.080Z,3.40
2022-08-29T08:05:27.042Z,3.88
2022-08-29T08:07:56.303Z,4.20
2022-08-29T08:10:24.792Z,4.10
2022-08-29T08:12:52.929Z,3.83
2022-08-29T08:15:22.879Z,4.03
2022-08-29T08:17:52.179Z,4.07
2022-08-29T08:20:20.196Z,3.75
2022-08-29T08:22:48.142Z,4.10
2022-08-29T08:25:16.034Z,4.03
2022-08-29T08:27:46.688Z,3.55
2022-08-29T08:30:15.013Z,3.30
2022-08-29T08:32:46.873Z,3.03
2022-08-29T08:35:22.570Z,2.45
2022-08-29T08:37:51.000Z,2.78
2022-08-29T08:40:26.939Z,2.60
2022-08-29T08:43:00.850Z,3.10
2022-08-29T08:45:39.238Z,3.20
2022-08-29T08:48:16.824Z,3.13
2022-08-29T08:50:54.889Z,2.58
2022-08-29T08:53:39.651Z,2.30
2022-08-29T08:56:42.363Z,2.95
2022-08-29T08:59:16.412Z,2.88
2022-08-29T09:02:07.373Z,2.10
2022-08-29T09:05:00.568Z,2.22
2022-08-29T09:07:43.898Z,2.75
2022-08-29T09:10:29.040Z,2.55
2022-08-29T09:13:15.384Z,2.83
2022-08-29T09:15:47.856Z,2.35
2022-08-29T09:18:41.146Z,2.33
2022-08-29T09:21:39.402Z,4.93
2022-08-29T09:24:03.045Z,2.33
2022-08-29T09:26:31.434Z,2.00
2022-08-29T09:28:59.391Z,1.90
2022-08-29T09:31:28.376Z,2.15
2022-08-29T09:34:12.338Z,2.15
2022-08-29T09:36:53.248Z,1.75
2022-08-29T09:39:21.516Z,1.88
2022-08-29T09:41:54.659Z,2.30
2022-08-29T09:44:32.274Z,2.25
2022-08-29T09:47:14.748Z,2.13
2022-08-29T09:49:55.231Z,2.15
2022-08-29T09:52:25.143Z,2.03
2022-08-29T09:54:53.135Z,2.53
2022-08-29T09:57:28.417Z,2.00
2022-08-29T10:00:13.869Z,2.63
2022-08-29T10:02:47.394Z,2.70
2022-08-29T10:05:34.972Z,2.45
2022-08-29T10:08:05.481Z,2.67
2022-08-29T10:10:36.310Z,2.95
2022-08-29T10:13:20.356Z,2.60
2022-08-29T10:15:59.208Z,2.70
2022-08-29T10:18:43.141Z,2.25
2022-08-29T10:21:12.199Z,2.33
2022-08-29T10:24:07.925Z,2.60
2022-08-29T10:26:50.742Z,1.98
2022-08-29T10:29:51.919Z,2.67
2022-08-29T10:32:51.197Z,2.08
2022-08-29T10:35:43.635Z,2.60
2022-08-29T10:38:18.285Z,2.55
2022-08-29T10:41:20.675Z,2.00
2022-08-29T10:47:14.185Z,1.75
2022-08-29T10:49:52.715Z,2.03
2022-08-29T10:52:29.002Z,1.83
2022-08-29T10:55:21.752Z,1.90
2022-08-29T10:58:02.749Z,2.03
2022-08-29T11:00:58.391Z,1.95
2022-08-29T11:03:44.611Z,2.00
2022-08-29T11:06:18.468Z,1.83
2022-08-29T11:09:06.182Z,3.35
2022-08-29T11:11:34.833Z,1.90
2022-08-29T11:14:07.173Z,1.83
2022-08-29T11:16:45.609Z,1.92
2022-08-29T11:19:21.594Z,3.05
2022-08-29T11:22:20.855Z,2.20
2022-08-29T11:25:14.507Z,2.13
2022-08-29T11:28:16.946Z,1.90
2022-08-29T11:31:05.851Z,2.33
2022-08-29T11:33:46.402Z,1.75
2022-08-29T11:36:23.092Z,2.03
2022-08-29T11:39:00.089Z,1.67
2022-08-29T11:41:44.480Z,1.98
2022-08-29T11:44:28.843Z,1.70
2022-08-29T11:47:40.857Z,2.15
2022-08-29T11:50:20.575Z,1.90
2022-08-29T11:53:07.444Z,2.05
2022-08-29T11:55:42.815Z,2.00
2022-08-29T11:58:16.904Z,1.80
2022-08-29T12:00:56.587Z,3.95
2022-08-29T12:03:34.558Z,2.20
2022-08-29T12:06:15.055Z,1.90
2022-08-29T12:09:13.947Z,2.72
2022-08-29T12:12:04.830Z,2.08
2022-08-29T12:14:40.139Z,2.10
2022-08-29T12:17:51.326Z,2.17
2022-08-29T12:20:31.488Z,2.33
2022-08-29T12:23:13.326Z,1.98
2022-08-29T12:26:15.925Z,1.70
2022-08-29T12:29:19.613Z,2.80
2022-08-29T12:32:29.753Z,1.80
2022-08-29T12:35:22.686Z,2.10
2022-08-29T12:38:15.795Z,2.00
2022-08-29T12:41:12.678Z,2.00
2022-08-29T12:43:44.856Z,2.22
2022-08-29T12:46:19.684Z,2.55
2022-08-29T12:48:57.773Z,1.73
2022-08-29T12:52:01.549Z,1.83
2022-08-29T12:54:32.663Z,1.98
2022-08-29T12:57:03.689Z,2.08
2022-08-29T12:59:31.849Z,2.00
2022-08-29T13:02:22.925Z,1.60
2022-08-29T13:04:52.771Z,1.85
2022-08-29T13:09:59.691Z,1.80
2022-08-29T13:12:30.687Z,2.40
2022-08-29T13:15:06.241Z,2.05
2022-08-29T13:17:42.243Z,2.08
2022-08-29T13:20:41.376Z,2.00
2022-08-29T13:23:56.447Z,1.90
2022-08-29T13:26:28.351Z,2.13
2022-08-29T13:29:01.307Z,2.40
2022-08-29T13:31:52.911Z,2.10
2022-08-29T13:34:21.106Z,2.15
2022-08-29T13:36:59.197Z,2.28
2022-08-29T13:39:28.574Z,1.70
2022-08-29T13:42:02.480Z,1.88
2022-08-29T13:44:49.708Z,1.92
2022-08-29T13:47:26.412Z,1.70
2022-08-29T13:50:06.159Z,2.20
2022-08-29T13:52:35.380Z,1.83
2022-08-29T13:55:06.406Z,2.00
2022-08-29T13:57:36.437Z,2.13
2022-08-29T14:00:06.430Z,2.20
2022-08-29T14:02:35.519Z,2.40
2022-08-29T14:05:03.816Z,2.38
2022-08-29T14:07:31.780Z,1.95
2022-08-29T14:09:59.790Z,2.33
2022-08-29T14:12:33.226Z,2.10
2022-08-29T14:15:09.001Z,3.05
2022-08-29T14:17:41.917Z,2.80
2022-08-29T14:20:15.001Z,1.77
2022-08-29T14:22:43.260Z,2.50
2022-08-29T14:25:11.839Z,1.88
2022-08-29T14:27:41.045Z,2.15
2022-08-29T14:30:10.616Z,1.90
2022-08-29T14:32:38.982Z,1.90
2022-08-29T14:35:08.319Z,2.13
2022-08-29T14:37:37.719Z,2.30
2022-08-29T14:40:08.932Z,2.05
2022-08-29T14:42:39.339Z,2.85
2022-08-29T14:45:08.385Z,2.25
2022-08-29T14:47:38.135Z,2.35
2022-08-29T14:50:09.223Z,2.22
2022-08-29T14:52:45.386Z,2.40
2022-08-29T14:55:15.800Z,2.83
2022-08-29T14:57:44.199Z,2.70
2022-08-29T15:00:19.742Z,2.58
2022-08-29T15:02:48.977Z,2.47
2022-08-29T15:05:17.532Z,1.95
2022-08-29T15:07:50.162Z,2.10
2022-08-29T15:10:21.408Z,1.90
2022-08-29T15:12:49.833Z,2.13
2022-08-29T15:15:20.007Z,2.05
2022-08-29T15:17:48.323Z,2.20
2022-08-29T15:20:35.736Z,2.10
2022-08-29T15:23:05.870Z,2.22
2022-08-29T15:25:37.285Z,2.10
2022-08-29T15:28:05.918Z,2.70
2022-08-29T15:30:35.310Z,2.15
2022-08-29T15:33:05.690Z,3.03
2022-08-29T15:35:33.979Z,2.70
2022-08-29T15:38:02.611Z,2.58
2022-08-29T15:40:31.034Z,2.33
2022-08-29T15:42:59.384Z,2.80
2022-08-29T15:45:34.417Z,2.42
2022-08-29T15:48:11.852Z,2.35
2022-08-29T15:50:43.743Z,2.60
2022-08-29T15:53:12.170Z,2.72
2022-08-29T15:55:44.295Z,2.88
2022-08-29T15:58:14.879Z,2.80
2022-08-29T16:00:43.306Z,2.88
2022-08-29T16:03:11.498Z,2.78
2022-08-29T16:05:41.230Z,2.70
2022-08-29T16:08:17.419Z,3.22
2022-08-29T16:10:47.259Z,2.80
2022-08-29T16:13:15.470Z,3.25
2022-08-29T16:15:48.168Z,3.13
2022-08-29T16:18:16.403Z,3.72
2022-08-29T16:20:51.826Z,3.30
2022-08-29T16:23:27.631Z,3.17
2022-08-29T16:25:55.885Z,3.40
2022-08-29T16:28:24.426Z,3.35
2022-08-29T16:30:53.611Z,3.85
2022-08-29T16:33:22.919Z,3.60
2022-08-29T16:35:52.505Z,3.70
2022-08-29T16:38:22.081Z,3.67
2022-08-29T16:40:50.480Z,3.70
2022-08-29T16:43:18.693Z,3.35
2022-08-29T16:45:47.379Z,3.83
2022-08-29T16:48:18.324Z,4.63
2022-08-29T16:50:46.641Z,5.15
2022-08-29T16:53:15.925Z,3.65
2022-08-29T16:55:45.115Z,3.85
2022-08-29T16:58:33.143Z,3.90
2022-08-29T17:01:02.202Z,3.67
2022-08-29T17:03:30.261Z,4.18
2022-08-29T17:06:05.280Z,3.70
2022-08-29T17:08:34.349Z,4.03
2022-08-29T17:11:02.450Z,3.67
2022-08-29T17:13:30.940Z,4.32
2022-08-29T17:16:02.378Z,4.22
2022-08-29T17:18:33.467Z,4.05
2022-08-29T17:21:02.469Z,4.50
2022-08-29T17:23:31.239Z,4.00
2022-08-29T17:26:02.399Z,4.03
2022-08-29T17:28:32.484Z,4.20
2022-08-29T17:31:23.977Z,3.85
2022-08-29T17:33:57.293Z,4.30
2022-08-29T17:36:28.787Z,4.38
2022-08-29T17:38:58.141Z,5.15
2022-08-29T17:41:31.039Z,4.45
2022-08-29T17:44:08.263Z,4.13
2022-08-29T17:46:37.050Z,4.38
2022-08-29T17:49:08.420Z,4.75
2022-08-29T17:51:40.905Z,19.95
2022-08-29T17:54:12.679Z,7.95
2022-08-29T17:56:54.748Z,7.68
2022-08-29T17:59:32.900Z,8.10
2022-08-29T18:02:03.238Z,8.55
2022-08-29T18:04:32.733Z,7.78
2022-08-29T18:07:01.017Z,7.80
2022-08-29T18:09:29.167Z,7.78
2022-08-29T18:12:04.490Z,7.32
2022-08-29T18:14:36.386Z,7.77
2022-08-29T18:17:06.267Z,8.43
2022-08-29T18:19:36.701Z,7.78
2022-08-29T18:22:08.074Z,8.07
2022-08-29T18:24:36.583Z,8.23
2022-08-29T18:27:14.276Z,8.77
2022-08-29T18:29:45.524Z,8.43
2022-08-29T18:33:20.967Z,8.77
2022-08-29T18:35:52.064Z,8.00
2022-08-29T18:38:20.240Z,8.90
2022-08-29T18:40:51.206Z,8.40
2022-08-29T18:43:28.317Z,8.85
2022-08-29T18:45:58.337Z,9.27
2022-08-29T18:48:29.614Z,8.88
2022-08-29T18:51:00.345Z,9.50
2022-08-29T18:53:31.923Z,8.35
2022-08-29T18:56:00.396Z,8.13
2022-08-29T18:58:41.555Z,8.63
2022-08-29T19:04:10.499Z,10.60
2022-08-29T19:06:39.108Z,8.68
2022-08-29T19:09:11.939Z,10.30
2022-08-29T19:11:39.893Z,10.35
2022-08-29T19:14:07.989Z,9.63
2022-08-29T19:16:37.219Z,10.57
2022-08-29T19:19:12.294Z,10.93
2022-08-29T19:21:43.238Z,10.88
2022-08-29T19:24:14.111Z,10.93
2022-08-29T19:26:43.649Z,10.88
2022-08-29T19:29:14.231Z,10.43
2022-08-29T19:31:42.397Z,9.68
2022-08-29T19:34:11.643Z,11.85
2022-08-29T19:36:46.945Z,10.75
2022-08-29T19:39:16.069Z,9.95
2022-08-29T19:41:44.171Z,9.90
2022-08-29T19:44:39.406Z,10.05
2022-08-29T19:47:08.018Z,11.65
2022-08-29T19:49:40.072Z,9.55
2022-08-29T19:52:10.090Z,10.25
2022-08-29T19:54:43.453Z,10.27
2022-08-29T19:57:14.681Z,10.50
2022-08-29T19:59:44.716Z,10.35
2022-08-29T20:02:13.074Z,10.25
2022-08-29T20:04:43.486Z,10.57
2022-08-29T20:07:15.477Z,9.95
2022-08-29T20:09:44.270Z,10.40
2022-08-29T20:12:13.254Z,10.40
2022-08-29T20:14:45.679Z,11.10
2022-08-29T20:17:15.778Z,12.32
2022-08-29T20:19:47.604Z,11.73
2022-08-29T20:22:16.062Z,10.00
2022-08-29T20:24:48.538Z,12.57
2022-08-29T20:27:19.810Z,10.63
2022-08-29T20:30:09.813Z,9.15
2022-08-29T20:32:38.811Z,8.32
2022-08-29T20:35:07.426Z,8.55
2022-08-29T20:37:37.084Z,8.63
2022-08-29T20:40:05.387Z,9.20
2022-08-29T20:42:35.173Z,10.73
2022-08-29T20:45:03.464Z,9.18
2022-08-29T20:47:31.583Z,10.30
2022-08-29T20:50:06.670Z,10.00
2022-08-29T20:52:37.975Z,9.55
2022-08-29T20:55:07.040Z,10.38
2022-08-29T20:57:39.240Z,9.77
2022-08-29T21:00:09.329Z,10.13
2022-08-29T21:02:56.952Z,12.02
2022-08-29T21:05:43.263Z,10.80
2022-08-29T21:08:13.003Z,10.88
2022-08-29T21:10:41.603Z,9.68
2022-08-29T21:13:31.618Z,10.95
2022-08-29T21:16:04.701Z,10.93
2022-08-29T21:18:33.955Z,11.20
2022-08-29T21:21:02.747Z,11.57
2022-08-29T21:23:31.298Z,10.93
2022-08-29T21:26:00.397Z,11.48
2022-08-29T21:28:29.569Z,11.88
2022-08-29T21:31:11.684Z,11.20
2022-08-29T21:33:41.622Z,11.10
2022-08-29T21:36:29.244Z,10.18
2022-08-29T21:39:09.966Z,10.80
2022-08-29T21:41:40.903Z,10.98
2022-08-29T21:44:11.486Z,10.20
2022-08-29T21:46:43.509Z,11.48
2022-08-29T21:49:14.874Z,11.98
2022-08-29T21:51:43.403Z,11.10
2022-08-29T21:54:13.760Z,10.80
2022-08-29T21:56:42.397Z,10.50
2022-08-29T21:59:11.937Z,10.35
2022-08-29T22:01:40.825Z,10.88
2022-08-29T22:04:11.256Z,10.52
2022-08-29T22:06:52.740Z,10.93
2022-08-29T22:09:21.683Z,10.02
2022-08-29T22:11:49.830Z,10.23
2022-08-29T22:14:17.726Z,10.60
2022-08-29T22:16:57.530Z,10.63
2022-08-29T22:19:25.446Z,10.98
2022-08-29T22:21:53.237Z,11.15
2022-08-29T22:24:21.136Z,11.15
2022-08-29T22:26:49.323Z,12.20
2022-08-29T22:29:17.691Z,10.18
2022-08-29T22:31:46.732Z,11.23
2022-08-29T22:34:15.776Z,10.40
2022-08-29T22:36:43.934Z,10.77
2022-08-29T22:39:17.041Z,12.00
2022-08-29T22:41:47.722Z,10.88
2022-08-29T22:47:10.644Z,10.15
2022-08-29T22:49:40.245Z,11.07
2022-08-29T22:52:09.433Z,11.23
2022-08-29T22:54:41.624Z,11.32
2022-08-29T22:57:14.092Z,10.57
2022-08-29T22:59:43.331Z,10.60
2022-08-29T23:02:12.140Z,11.13
2022-08-29T23:04:40.327Z,10.63
2022-08-29T23:07:11.675Z,10.52
2022-08-29T23:09:42.306Z,10.60
2022-08-29T23:12:11.843Z,10.98
2022-08-29T23:14:48.817Z,11.50
2022-08-29T23:17:21.066Z,11.18
2022-08-29T23:19:53.315Z,10.90
2022-08-29T23:22:27.438Z,10.27
2022-08-29T23:24:59.060Z,10.82
2022-08-29T23:27:31.264Z,11.32
2022-08-29T23:30:00.949Z,11.27
2022-08-29T23:32:29.052Z,11.10
2022-08-29T23:34:57.374Z,10.55
2022-08-29T23:37:25.265Z,10.18
2022-08-29T23:39:53.730Z,10.02
2022-08-29T23:42:22.953Z,10.80
2022-08-29T23:44:51.437Z,10.32
2022-08-29T23:47:19.605Z,10.45
2022-08-29T23:49:50.523Z,10.85
2022-08-29T23:52:18.588Z,11.35
2022-08-29T23:54:46.537Z,10.32
2022-08-29T23:57:14.419Z,10.93
